Time;durP1;ratioP1;P1;durP2;ratioP2;P2;SDS_P1;SDS_P2;PMS_P1;PMS_P2;Temp;Humidity;BMP_temperature;BMP_pressure;BME280_temperature;BME280_humidity;BME280_pressure;Samples;Min_cycle;Max_cycle;Signal;HPM_P1;HPM_P2
2022/08/28 00:00:41;;;;;;;4.47;2.67;;;;;;;25.61;55.52;99175.69;4476993;32;33871;-79
2022/08/28 00:03:12;;;;;;;5.15;2.42;;;;;;;25.64;55.87;99183.41;4477756;32;34566;-79
2022/08/28 00:05:45;;;;;;;4.35;2.17;;;;;;;25.21;57.02;99174.53;4482984;32;33637;-79
2022/08/28 00:08:16;;;;;;;5.35;3.05;;;;;;;25.08;57.39;99174.69;4479230;32;33611;-79
2022/08/28 00:10:44;;;;;;;;;;;;;;;25.09;57.29;99175.50;4477549;32;34590;-80
2022/08/28 00:13:19;;;;;;;4.30;2.10;;;;;;;24.96;57.61;99165.06;4477329;32;34230;-80
2022/08/28 00:15:50;;;;;;;4.45;2.55;;;;;;;24.81;58.31;99159.16;4476794;32;33472;-79
2022/08/28 00:18:19;;;;;;;8.18;2.50;;;;;;;25.15;57.29;99150.25;4483045;32;33714;-80
2022/08/28 00:20:49;;;;;;;4.72;3.08;;;;;;;24.96;57.83;99157.09;4477225;32;34592;-79
2022/08/28 00:23:19;;;;;;;5.10;2.00;;;;;;;24.70;58.52;99177.78;4477354;32;33698;-79
2022/08/28 00:25:48;;;;;;;4.90;2.37;;;;;;;24.67;58.35;99183.31;4477064;32;34617;-80
2022/08/28 00:28:17;;;;;;;4.30;1.77;;;;;;;24.84;57.29;99189.91;4482907;32;33452;-79
2022/08/28 00:30:54;;;;;;;5.05;1.85;;;;;;;24.47;58.30;99187.53;4477289;32;33417;-80
2022/08/28 00:33:27;;;;;;;5.12;2.62;;;;;;;24.35;58.65;99188.47;4477850;32;33714;-80
2022/08/28 00:35:57;;;;;;;5.45;1.85;;;;;;;24.12;59.34;99193.75;4477461;32;34152;-79
2022/08/28 00:38:27;;;;;;;3.60;1.98;;;;;;;23.98;59.66;99193.97;4476945;32;33538;-80
2022/08/28 00:40:58;;;;;;;3.30;1.62;;;;;;;24.01;59.54;99191.94;4482771;32;33268;-79
2022/08/28 00:43:35;;;;;;;;;;;;;;;23.90;59.93;99188.44;4477445;32;34502;-78
2022/08/28 00:46:07;;;;;;;5.03;2.03;;;;;;;23.90;60.11;99178.69;4477299;32;33697;-79
2022/08/28 00:48:37;;;;;;;3.53;1.80;;;;;;;23.89;59.87;99170.84;4476800;32;33350;-79
2022/08/28 00:53:55;;;;;;;4.10;2.30;;;;;;;23.87;59.68;99178.87;4483088;32;33629;-79
2022/08/28 00:56:28;;;;;;;4.53;2.05;;;;;;;23.76;59.90;99170.94;4477177;32;34891;-79
2022/08/28 00:59:03;;;;;;;6.47;2.12;;;;;;;23.54;60.89;99158.44;4477158;32;33517;-79
2022/08/28 01:01:32;;;;;;;3.65;2.00;;;;;;;23.55;61.00;99154.81;4476983;32;34620;-79
2022/08/28 01:04:04;;;;;;;3.22;1.87;;;;;;;23.81;60.33;99161.66;4476733;32;34856;-81
2022/08/28 01:06:35;;;;;;;4.20;1.85;;;;;;;23.82;60.06;99158.06;4482340;32;33845;-79
2022/08/28 01:09:06;;;;;;;4.12;1.90;;;;;;;23.75;60.52;99156.84;4477003;32;33168;-79
2022/08/28 01:11:35;;;;;;;4.40;1.80;;;;;;;23.81;60.36;99158.19;4476817;32;33453;-80
2022/08/28 01:14:05;;;;;;;4.97;2.17;;;;;;;23.88;60.07;99151.47;4477230;32;33597;-80
2022/08/28 01:16:35;;;;;;;4.22;2.12;;;;;;;23.64;60.94;99157.63;4482635;32;33513;-80
2022/08/28 01:19:06;;;;;;;4.85;2.03;;;;;;;23.73;60.29;99161.41;4477195;32;33363;-79
2022/08/28 01:21:39;;;;;;;4.47;2.40;;;;;;;23.65;60.77;99166.41;4476016;32;33638;-79
2022/08/28 01:24:13;;;;;;;4.70;1.85;;;;;;;23.81;59.60;99166.12;4476548;32;34565;-79
2022/08/28 01:26:42;;;;;;;3.25;1.87;;;;;;;23.79;59.51;99181.28;4475550;32;34259;-79
2022/08/28 01:29:12;;;;;;;4.50;1.77;;;;;;;23.78;59.32;99183.09;4482512;32;34131;-80
2022/08/28 01:31:41;;;;;;;4.00;1.75;;;;;;;23.71;59.19;99179.19;4476762;32;33578;-80
2022/08/28 01:34:12;;;;;;;2.80;1.58;;;;;;;23.84;57.90;99173.84;4476881;32;34479;-78
2022/08/28 01:36:41;;;;;;;2.28;1.30;;;;;;;23.86;57.35;99185.16;4476201;32;34222;-81
2022/08/28 01:39:15;;;;;;;5.87;1.58;;;;;;;23.90;56.71;99189.28;4482380;32;33866;-79
2022/08/28 01:41:47;;;;;;;2.42;1.27;;;;;;;23.70;57.38;99182.78;4481012;32;34007;-80
2022/08/28 01:44:16;;;;;;;2.62;1.50;;;;;;;23.39;58.27;99195.69;4476671;32;33850;-81
2022/08/28 01:46:46;;;;;;;2.72;1.33;;;;;;;23.72;57.28;99186.16;4476285;32;34663;-79
2022/08/28 01:49:15;;;;;;;5.07;1.65;;;;;;;23.61;57.23;99181.69;4476890;32;33274;-80
2022/08/28 01:51:44;;;;;;;2.20;1.45;;;;;;;23.57;57.49;99176.75;4482023;32;33473;-80
2022/08/28 01:54:14;;;;;;;2.08;1.08;;;;;;;23.23;58.85;99175.78;4476596;32;34177;-79
2022/08/28 01:56:45;;;;;;;1.10;0.75;;;;;;;23.08;59.54;99180.38;4476671;32;33726;-79
2022/08/28 01:59:14;;;;;;;2.25;1.48;;;;;;;22.94;60.31;99179.53;4476318;32;33357;-80
2022/08/28 02:01:44;;;;;;;4.70;1.48;;;;;;;22.87;60.73;99178.31;4482007;32;33809;-79
2022/08/28 02:04:14;;;;;;;3.08;1.42;;;;;;;22.76;61.30;99159.72;4479944;32;34794;-79
2022/08/28 02:06:42;;;;;;;2.85;1.50;;;;;;;23.04;60.36;99158.59;4476088;32;35016;-79
2022/08/28 02:09:11;;;;;;;3.12;2.00;;;;;;;23.08;60.35;99157.41;4476022;32;32953;-79
2022/08/28 02:11:44;;;;;;;3.85;1.90;;;;;;;23.06;60.08;99153.19;4476310;32;32949;-80
2022/08/28 02:14:14;;;;;;;3.08;1.80;;;;;;;22.98;60.35;99144.03;4481941;32;33499;-80
2022/08/28 02:16:43;;;;;;;3.33;1.30;;;;;;;23.24;59.40;99135.09;4478484;32;33479;-79
2022/08/28 02:19:12;;;;;;;2.70;1.73;;;;;;;23.59;58.07;99137.75;4478508;32;32936;-80
2022/08/28 02:21:40;;;;;;;3.15;1.42;;;;;;;23.26;58.86;99149.91;4478066;32;33700;-78
2022/08/28 02:24:09;;;;;;;2.80;1.37;;;;;;;23.27;59.25;99138.38;4484151;32;33717;-79
2022/08/28 02:26:39;;;;;;;1.92;1.37;;;;;;;23.43;59.11;99146.00;4478449;32;33672;-79
2022/08/28 02:29:09;;;;;;;2.10;1.23;;;;;;;23.50;58.80;99125.22;4478207;32;33849;-77
2022/08/28 02:31:38;;;;;;;5.03;2.30;;;;;;;23.67;58.10;99134.53;4478060;32;32931;-79
2022/08/28 02:34:09;;;;;;;4.20;1.85;;;;;;;23.60;58.47;99134.13;4477915;32;34140;-79
2022/08/28 02:36:40;;;;;;;2.50;1.90;;;;;;;23.95;57.14;99125.34;4483553;32;34656;-78
2022/08/28 02:39:09;;;;;;;3.53;1.98;;;;;;;23.61;57.97;99135.84;4478241;32;33236;-79
2022/08/28 02:41:38;;;;;;;2.72;1.40;;;;;;;23.55;58.65;99136.28;4477772;32;34243;-77
2022/08/28 02:44:09;;;;;;;2.80;1.70;;;;;;;23.66;58.93;99133.69;4477237;32;34744;-78
2022/08/28 02:46:38;;;;;;;2.75;1.42;;;;;;;23.80;59.06;99128.22;4483331;32;33675;-78
2022/08/28 02:49:07;;;;;;;4.65;1.95;;;;;;;23.57;60.23;99137.88;4479066;32;33054;-77
2022/08/28 02:51:35;;;;;;;3.08;1.65;;;;;;;23.48;60.72;99148.31;4477755;32;34031;-78
2022/08/28 02:54:04;;;;;;;2.65;1.62;;;;;;;22.90;62.57;99169.28;4477878;32;33696;-78
2022/08/28 02:56:33;;;;;;;4.60;1.98;;;;;;;22.92;62.49;99181.44;4477837;32;33665;-78
2022/08/28 02:59:02;;;;;;;4.10;2.17;;;;;;;22.88;62.60;99171.19;4483440;32;33528;-77
2022/08/28 03:01:33;;;;;;;2.97;1.55;;;;;;;22.80;63.00;99163.81;4477917;32;33844;-77
2022/08/28 03:04:02;;;;;;;3.33;1.37;;;;;;;22.81;62.83;99162.91;4477877;32;34421;-79
2022/08/28 03:06:31;;;;;;;5.00;2.35;;;;;;;22.79;62.71;99159.50;4477282;32;33611;-79
2022/08/28 03:09:00;;;;;;;5.12;1.83;;;;;;;22.86;62.37;99166.03;4483224;32;33185;-79
2022/08/28 03:11:29;;;;;;;3.10;1.42;;;;;;;22.94;62.14;99179.53;4477667;32;33687;-78
2022/08/28 03:13:57;;;;;;;2.80;1.50;;;;;;;23.00;62.38;99180.91;4477735;32;33798;-78
2022/08/28 03:16:26;;;;;;;3.42;1.40;;;;;;;22.88;62.83;99176.50;4479468;32;33651;-78
2022/08/28 03:18:56;;;;;;;3.65;1.80;;;;;;;22.58;63.75;99157.44;4483650;32;34120;-77
2022/08/28 03:21:25;;;;;;;2.23;1.60;;;;;;;22.49;64.32;99166.00;4482275;32;34248;-78
2022/08/28 03:23:54;;;;;;;4.87;2.30;;;;;;;22.71;63.60;99164.47;4470914;32;33574;-79
2022/08/28 03:26:23;;;;;;;3.05;1.50;;;;;;;22.63;63.79;99161.56;4476276;32;34867;-78
2022/08/28 03:28:53;;;;;;;3.17;1.75;;;;;;;22.70;63.71;99173.38;4477203;32;33464;-78
2022/08/28 03:31:27;;;;;;;3.37;1.90;;;;;;;22.80;63.00;99169.13;4483060;32;33617;-78
2022/08/28 03:33:57;;;;;;;3.70;1.67;;;;;;;22.86;62.29;99175.75;4477862;32;34477;-78
2022/08/28 03:36:28;;;;;;;2.40;1.17;;;;;;;22.40;63.70;99166.69;4477527;32;33011;-79
2022/08/28 03:39:00;;;;;;;2.08;1.37;;;;;;;22.79;62.16;99162.16;4477984;32;32505;-78
2022/08/28 03:41:31;;;;;;;3.53;1.70;;;;;;;22.89;61.49;99162.34;4480047;32;33390;-78
2022/08/28 03:44:00;;;;;;;3.95;2.05;;;;;;;22.94;60.61;99158.38;4483238;32;33239;-79
2022/08/28 03:46:32;;;;;;;5.23;2.10;;;;;;;22.87;61.22;99161.59;4478070;32;33145;-78
2022/08/28 03:49:02;;;;;;;;;;;;;;;23.11;60.81;99164.28;4477783;32;33380;-78
2022/08/28 03:51:33;;;;;;;4.82;2.20;;;;;;;22.98;61.36;99159.91;4477490;32;34224;-78
2022/08/28 03:54:02;;;;;;;3.40;1.80;;;;;;;23.19;60.00;99157.44;4483017;32;34409;-79
2022/08/28 03:56:31;;;;;;;3.10;1.50;;;;;;;23.07;60.01;99153.06;4477060;32;33941;-78
2022/08/28 03:59:02;;;;;;;6.72;1.75;;;;;;;23.16;59.99;99143.62;4477878;32;33689;-78
2022/08/28 04:01:32;;;;;;;1.92;1.33;;;;;;;23.40;58.70;99138.31;4477452;32;32600;-78
2022/08/28 04:04:03;;;;;;;3.17;1.50;;;;;;;23.49;58.54;99144.72;4479178;32;33537;-79
2022/08/28 04:06:32;;;;;;;3.60;1.85;;;;;;;23.45;57.68;99144.09;4483169;32;34841;-78
2022/08/28 04:09:03;;;;;;;3.25;2.15;;;;;;;23.60;57.97;99144.72;4477770;32;34473;-77
2022/08/28 04:11:37;;;;;;;4.80;1.85;;;;;;;23.58;57.59;99136.06;4477299;32;34534;-78
2022/08/28 04:14:06;;;;;;;2.83;1.35;;;;;;;23.46;57.74;99134.34;4477353;32;33722;-78
2022/08/28 04:16:35;;;;;;;3.15;1.87;;;;;;;23.53;57.68;99141.69;4483139;32;33772;-78
2022/08/28 04:19:05;;;;;;;5.05;1.87;;;;;;;23.51;57.93;99137.47;4477936;32;34141;-79
2022/08/28 04:21:34;;;;;;;3.25;1.55;;;;;;;23.53;58.05;99143.50;4477482;32;32953;-78
2022/08/28 04:24:07;;;;;;;3.37;1.70;;;;;;;23.50;58.31;99144.59;4477254;32;33482;-79
2022/08/28 04:26:37;;;;;;;2.15;1.35;;;;;;;23.31;59.35;99149.56;4476735;32;35296;-78
2022/08/28 04:29:06;;;;;;;5.90;1.52;;;;;;;23.66;58.00;99138.16;4482925;32;32837;-78
2022/08/28 04:31:36;;;;;;;3.12;1.55;;;;;;;23.67;58.53;99148.59;4477366;32;33474;-79
2022/08/28 04:34:07;;;;;;;3.33;1.52;;;;;;;23.75;58.25;99146.25;4476950;32;34062;-77
2022/08/28 04:36:36;;;;;;;4.05;1.55;;;;;;;23.88;57.70;99146.16;4477507;32;33999;-78
2022/08/28 04:39:07;;;;;;;4.37;1.83;;;;;;;24.00;57.22;99152.31;4482420;32;32953;-77
2022/08/28 04:41:37;;;;;;;4.35;1.77;;;;;;;23.72;58.05;99164.97;4477443;32;33088;-78
2022/08/28 04:44:07;;;;;;;3.80;1.73;;;;;;;23.70;57.70;99161.59;4461312;32;33187;-77
2022/08/28 04:46:36;;;;;;;4.12;1.80;;;;;;;23.70;57.32;99166.91;4461463;32;34440;-78
2022/08/28 04:49:06;;;;;;;3.17;1.48;;;;;;;23.85;56.42;99164.94;4461263;32;32960;-78
2022/08/28 04:51:35;;;;;;;2.97;1.92;;;;;;;23.95;56.47;99165.09;4469794;32;32846;-78
2022/08/28 04:54:10;;;;;;;2.58;1.55;;;;;;;24.07;56.60;99172.09;4477554;32;33819;-78
2022/08/28 04:56:40;;;;;;;3.65;1.85;;;;;;;23.98;57.37;99176.28;4476643;32;34395;-78
2022/08/28 04:59:09;;;;;;;3.58;1.87;;;;;;;23.79;58.65;99181.28;4476991;32;33729;-79
2022/08/28 05:01:39;;;;;;;2.80;1.70;;;;;;;23.81;58.75;99182.03;4482415;32;33939;-77
2022/08/28 05:04:10;;;;;;;3.37;1.70;;;;;;;24.15;57.93;99182.91;4477251;32;34500;-79
2022/08/28 05:06:42;;;;;;;3.72;2.10;;;;;;;24.34;57.60;99192.09;4477028;32;33574;-78
2022/08/28 05:09:11;;;;;;;2.95;1.87;;;;;;;24.30;57.87;99186.19;4476973;32;33353;-80
2022/08/28 05:11:39;;;;;;;3.47;1.80;;;;;;;24.41;57.59;99196.78;4476780;32;33747;-77
2022/08/28 05:14:13;;;;;;;3.72;1.70;;;;;;;24.44;57.66;99195.72;4482189;32;34039;-78
2022/08/28 05:16:45;;;;;;;2.85;1.60;;;;;;;24.63;57.29;99195.97;4476931;32;34390;-79
2022/08/28 05:19:16;;;;;;;3.35;1.65;;;;;;;24.56;57.68;99194.78;4476950;32;32816;-79
2022/08/28 05:21:45;;;;;;;;;;;;;;;24.67;56.04;99199.25;4477510;32;34166;-78
2022/08/28 05:24:14;;;;;;;3.42;1.55;;;;;;;24.65;56.61;99194.06;4482371;32;34627;-78
2022/08/28 05:26:43;;;;;;;3.97;1.80;;;;;;;24.88;55.66;99197.50;4477091;32;33722;-77
2022/08/28 05:29:16;;;;;;;5.03;1.40;;;;;;;24.89;55.47;99188.59;4476877;32;33051;-78
2022/08/28 05:31:46;;;;;;;4.85;1.73;;;;;;;24.86;55.95;99182.66;4476969;32;33927;-78
2022/08/28 05:34:16;;;;;;;2.35;1.35;;;;;;;24.97;55.93;99180.00;4476815;32;33621;-78
2022/08/28 05:36:45;;;;;;;3.60;1.95;;;;;;;24.97;55.53;99177.34;4482002;32;33852;-78
2022/08/28 05:39:15;;;;;;;6.25;2.95;;;;;;;25.64;54.12;99178.09;4476493;32;32966;-79
2022/08/28 05:41:45;;;;;;;6.28;1.90;;;;;;;26.13;52.52;99181.94;4476644;32;33728;-78
2022/08/28 05:44:16;;;;;;;3.22;1.77;;;;;;;26.70;50.29;99180.53;4476916;32;33261;-80
2022/08/28 05:46:46;;;;;;;;;;;;;;;26.87;49.37;99170.19;4493666;31;34029;-79
2022/08/28 05:49:18;;;;;;;3.27;1.67;;;;;;;26.56;50.12;99175.59;4491240;31;32169;-79
2022/08/28 05:51:47;;;;;;;4.00;2.15;;;;;;;26.57;50.05;99183.41;4492833;31;34294;-78
2022/08/28 05:54:17;;;;;;;3.17;1.55;;;;;;;26.03;51.41;99183.69;4492203;31;33397;-79
2022/08/28 05:56:45;;;;;;;4.85;2.00;;;;;;;26.05;51.50;99176.44;4494981;31;33495;-78
2022/08/28 05:59:15;;;;;;;4.55;2.55;;;;;;;26.05;50.94;99182.59;4482567;31;33488;-79
2022/08/28 06:01:49;;;;;;;2.67;1.43;;;;;;;26.18;50.65;99188.53;4476247;32;33448;-78
2022/08/28 06:04:24;;;;;;;3.30;1.60;;;;;;;25.86;51.37;99187.78;4476439;32;33673;-78
2022/08/28 06:06:53;;;;;;;3.80;1.50;;;;;;;25.85;51.19;99194.88;4476243;32;33702;-78
2022/08/28 06:09:24;;;;;;;2.30;1.40;;;;;;;26.07;51.05;99195.75;4477727;32;33073;-80
2022/08/28 06:11:58;;;;;;;2.92;1.15;;;;;;;25.86;51.13;99183.31;4482399;32;33456;-78
2022/08/28 06:14:28;;;;;;;2.40;1.40;;;;;;;25.70;51.60;99185.53;4476357;32;33142;-80
2022/08/28 06:16:58;;;;;;;2.75;1.62;;;;;;;25.87;50.96;99179.66;4475414;31;33553;-79
2022/08/28 06:19:30;;;;;;;3.58;1.83;;;;;;;26.15;50.32;99186.16;4475386;31;34123;-79
2022/08/28 06:22:00;;;;;;;3.47;1.83;;;;;;;26.26;50.02;99190.53;4481104;31;33502;-80
2022/08/28 06:24:35;;;;;;;2.92;1.20;;;;;;;26.32;49.81;99194.50;4475151;31;34111;-79
2022/08/28 06:27:05;;;;;;;3.97;1.65;;;;;;;26.38;50.15;99191.28;4478534;31;33516;-79
2022/08/28 06:29:33;;;;;;;2.03;1.17;;;;;;;26.38;50.03;99194.78;4475180;31;34013;-78
2022/08/28 06:32:04;;;;;;;2.08;1.30;;;;;;;26.71;49.07;99208.81;4475330;31;33551;-80
2022/08/28 06:34:34;;;;;;;1.75;1.20;;;;;;;26.58;49.70;99211.72;4480631;31;33749;-79
2022/08/28 06:37:03;;;;;;;4.35;2.05;;;;;;;26.69;48.79;99210.75;4470290;31;33047;-80
2022/08/28 06:39:32;;;;;;;3.97;1.77;;;;;;;26.97;48.03;99205.66;4474499;31;33188;-78
2022/08/28 06:42:01;;;;;;;2.95;1.20;;;;;;;26.79;48.46;99211.62;4471748;31;33322;-79
2022/08/28 06:44:31;;;;;;;5.50;1.20;;;;;;;26.72;49.01;99212.31;4479923;31;33782;-79
2022/08/28 06:47:00;;;;;;;6.37;1.40;;;;;;;26.72;49.28;99217.63;4475131;31;34083;-78
2022/08/28 06:49:29;;;;;;;3.20;1.35;;;;;;;26.88;48.32;99217.97;4474751;31;33841;-78
2022/08/28 06:51:59;;;;;;;3.08;1.30;;;;;;;27.37;46.75;99218.91;4474488;31;33816;-80
2022/08/28 06:54:29;;;;;;;3.42;1.25;;;;;;;26.77;48.35;99226.03;4473081;31;34014;-80
2022/08/28 06:56:58;;;;;;;1.95;0.95;;;;;;;27.19;48.39;99226.75;4482242;31;34286;-80
2022/08/28 06:59:27;;;;;;;2.78;0.95;;;;;;;27.12;47.63;99225.59;4472566;31;33173;-79
2022/08/28 07:01:56;;;;;;;4.55;1.35;;;;;;;27.59;47.25;99236.47;4476480;31;34757;-80
2022/08/28 07:04:26;;;;;;;5.32;2.62;;;;;;;27.54;47.43;99237.84;4474878;31;34588;-79
2022/08/28 07:06:55;;;;;;;5.53;1.70;;;;;;;27.56;47.65;99234.06;4482752;31;33468;-79
2022/08/28 07:09:25;;;;;;;4.07;1.95;;;;;;;27.76;46.16;99239.41;4476857;31;34196;-78
2022/08/28 07:11:54;;;;;;;5.50;2.00;;;;;;;27.87;46.08;99239.28;4475904;31;35550;-81
2022/08/28 07:14:23;;;;;;;2.62;1.25;;;;;;;28.00;45.40;99238.97;4476879;31;34956;-78
2022/08/28 07:16:55;;;;;;;2.30;1.17;;;;;;;27.97;45.89;99248.09;4481878;32;34279;-79
2022/08/28 07:19:24;;;;;;;4.10;2.03;;;;;;;27.97;45.25;99241.94;4487950;31;33827;-80
2022/08/28 07:21:54;;;;;;;3.62;1.45;;;;;;;27.93;46.13;99254.69;4480852;31;33672;-81
2022/08/28 07:24:23;;;;;;;2.73;1.20;;;;;;;28.22;44.86;99251.16;4477661;32;33571;-80
2022/08/28 07:26:53;;;;;;;3.40;1.50;;;;;;;28.26;45.27;99252.56;4478063;32;33907;-80
2022/08/28 07:29:21;;;;;;;4.80;1.40;;;;;;;27.93;47.14;99265.38;4483528;32;33386;-80
2022/08/28 07:31:52;;;;;;;2.70;1.35;;;;;;;27.63;48.97;99266.34;4479443;31;34557;-78
2022/08/28 07:34:22;;;;;;;3.47;1.67;;;;;;;27.79;49.13;99266.63;4476754;32;33206;-79
2022/08/28 07:36:57;;;;;;;3.40;1.70;;;;;;;27.89;48.59;99269.31;4477275;32;34119;-79
2022/08/28 07:39:25;;;;;;;3.42;1.55;;;;;;;27.65;49.97;99262.56;4469310;32;33130;-79
2022/08/28 07:41:56;;;;;;;2.62;1.55;;;;;;;27.64;50.10;99260.88;4482958;32;33691;-79
2022/08/28 07:47:30;;;;;;;3.47;1.67;;;;;;;27.65;49.54;99259.06;4477474;32;34816;-80
2022/08/28 07:50:00;;;;;;;4.10;1.55;;;;;;;27.75;50.01;99267.88;4471115;32;32533;-78
2022/08/28 07:52:29;;;;;;;3.58;1.75;;;;;;;27.75;48.84;99267.03;4476406;32;32370;-79
2022/08/28 07:54:58;;;;;;;3.70;1.55;;;;;;;27.34;51.35;99266.31;4482218;31;34116;-79
2022/08/28 07:57:28;;;;;;;5.95;2.25;;;;;;;27.76;49.82;99260.72;4477685;32;33370;-78
2022/08/28 07:59:57;;;;;;;3.87;1.52;;;;;;;27.83;49.82;99267.19;4483960;31;33119;-80
2022/08/28 08:02:26;;;;;;;4.55;1.83;;;;;;;27.80;49.78;99265.62;4492663;31;33803;-78
2022/08/28 08:04:55;;;;;;;2.33;1.30;;;;;;;27.91;48.90;99283.34;4498812;31;34363;-79
2022/08/28 08:07:24;;;;;;;3.30;1.52;;;;;;;27.53;49.89;99277.00;4492257;31;33525;-79
2022/08/28 08:09:52;;;;;;;2.80;1.25;;;;;;;27.80;49.54;99278.13;4481438;31;32067;-80
2022/08/28 08:12:21;;;;;;;6.37;1.55;;;;;;;27.74;50.12;99279.53;4480732;31;33589;-79
2022/08/28 08:14:52;;;;;;;2.95;1.25;;;;;;;27.95;49.51;99283.91;4487343;31;34003;-79
2022/08/28 08:17:20;;;;;;;3.28;1.60;;;;;;;28.18;49.00;99285.28;4498395;31;33835;-79
2022/08/28 08:19:49;;;;;;;4.40;1.92;;;;;;;28.26;48.01;99279.22;4493072;31;33190;-80
2022/08/28 08:22:18;;;;;;;2.62;1.48;;;;;;;28.36;47.53;99277.37;4475663;31;33527;-80
2022/08/28 08:24:47;;;;;;;2.78;1.50;;;;;;;28.53;46.87;99285.66;4474919;32;33964;-80
2022/08/28 08:27:17;;;;;;;3.30;1.55;;;;;;;28.73;46.33;99276.59;4481194;32;33683;-79
2022/08/28 08:29:45;;;;;;;2.45;1.15;;;;;;;28.82;45.24;99283.72;4475420;32;33296;-79
2022/08/28 08:32:16;;;;;;;3.75;1.62;;;;;;;28.91;45.26;99282.84;4475723;32;33940;-79
2022/08/28 08:34:45;;;;;;;;;;;;;;;28.93;46.11;99285.37;4475582;32;34019;-79
2022/08/28 08:37:17;;;;;;;3.85;1.70;;;;;;;28.93;44.10;99282.69;4481062;32;34232;-80
2022/08/28 08:39:46;;;;;;;3.58;1.60;;;;;;;29.13;43.76;99286.13;4481353;32;33426;-79
2022/08/28 08:42:24;;;;;;;3.03;1.65;;;;;;;28.64;45.08;99290.81;4477139;32;34469;-79
2022/08/28 08:44:55;;;;;;;2.90;1.65;;;;;;;28.96;45.87;99289.56;4477195;32;33838;-78
2022/08/28 08:47:31;;;;;;;3.85;2.00;;;;;;;28.99;43.95;99279.41;4476956;32;34016;-78
2022/08/28 08:50:02;;;;;;;2.85;1.25;;;;;;;28.75;44.17;99292.47;4482265;32;33731;-79
2022/08/28 08:52:37;;;;;;;3.85;1.92;;;;;;;28.77;44.81;99294.00;4476769;32;33789;-79
2022/08/28 08:55:14;;;;;;;1.73;1.17;;;;;;;28.64;45.50;99289.00;4477144;32;33408;-79
2022/08/28 08:57:44;;;;;;;3.90;2.10;;;;;;;28.76;43.97;99292.31;4477273;32;33862;-79
2022/08/28 09:00:17;;;;;;;3.08;1.45;;;;;;;28.44;44.57;99285.50;4476825;32;33011;-80
2022/08/28 09:02:51;;;;;;;2.87;1.25;;;;;;;28.71;44.09;99287.41;4482299;32;34569;-78
2022/08/28 09:05:23;;;;;;;4.47;1.73;;;;;;;28.97;43.90;99285.91;4477179;32;34829;-79
2022/08/28 09:07:56;;;;;;;4.70;1.75;;;;;;;29.04;41.56;99282.47;4477760;32;33908;-79
2022/08/28 09:10:34;;;;;;;5.18;1.33;;;;;;;28.90;41.24;99283.00;4477288;32;33702;-80
2022/08/28 09:13:08;;;;;;;3.55;1.42;;;;;;;29.14;41.67;99283.31;4477484;32;34596;-79
2022/08/28 09:15:43;;;;;;;2.97;1.77;;;;;;;29.33;42.25;99290.38;4482570;32;34614;-78
2022/08/28 09:18:20;;;;;;;;;;;;;;;29.16;43.09;99287.66;4466486;32;33878;-78
2022/08/28 09:20:50;;;;;;;2.60;1.42;;;;;;;29.13;43.20;99296.81;4464685;32;33907;-79
2022/08/28 09:23:19;;;;;;;3.80;1.92;;;;;;;29.14;42.68;99296.69;4476678;32;34340;-79
2022/08/28 09:25:51;;;;;;;;;;;;;;;29.23;42.78;99305.59;4477136;32;34614;-80
2022/08/28 09:28:22;;;;;;;2.62;1.55;;;;;;;29.20;42.72;99302.41;4482258;32;33838;-80
2022/08/28 09:30:59;;;;;;;3.28;1.67;;;;;;;29.18;42.76;99302.56;4476901;32;33174;-79
2022/08/28 09:33:36;;;;;;;2.50;1.55;;;;;;;29.37;42.85;99301.59;4477012;32;33791;-80
2022/08/28 09:36:26;;;;;;;3.55;1.60;;;;;;;29.38;41.79;99305.09;4476923;32;34020;-80
2022/08/28 09:39:10;;;;;;;2.62;1.50;;;;;;;29.19;42.44;99296.22;4477094;32;34074;-78
2022/08/28 09:44:51;;;;;;;4.15;1.45;;;;;;;29.48;40.68;99303.19;4417639;32;34393;-78
2022/08/28 09:47:44;;;;;;;6.57;2.33;;;;;;;29.21;42.39;99304.06;4417585;32;33394;-78
2022/08/28 09:50:32;;;;;;;3.90;1.73;;;;;;;28.94;42.28;99301.22;4412232;32;33428;-80
2022/08/28 09:53:16;;;;;;;4.78;2.00;;;;;;;28.85;42.12;99296.78;4409378;32;33028;-79
2022/08/28 09:55:55;;;;;;;3.42;1.40;;;;;;;29.69;40.60;99298.44;4411206;32;33838;-78
2022/08/28 09:58:30;;;;;;;3.75;1.62;;;;;;;29.66;40.75;99297.88;4411705;32;34594;-79
2022/08/28 10:01:03;;;;;;;4.20;1.50;;;;;;;29.74;40.49;99304.19;4410796;32;34501;-80
2022/08/28 10:03:37;;;;;;;9.60;2.03;;;;;;;29.84;38.74;99293.44;4416813;32;33043;-80
2022/08/28 10:06:11;;;;;;;4.15;1.83;;;;;;;29.91;39.31;99305.19;4411927;32;34563;-80
2022/08/28 10:08:50;;;;;;;3.90;1.87;;;;;;;29.94;39.49;99304.88;4410805;32;33969;-81
2022/08/28 10:11:26;;;;;;;2.80;1.42;;;;;;;29.68;40.76;99296.78;4410796;32;33171;-79
2022/08/28 10:14:02;;;;;;;3.37;1.67;;;;;;;30.13;38.89;99298.50;4411246;32;34119;-79
2022/08/28 10:16:39;;;;;;;7.35;2.62;;;;;;;30.04;40.15;99307.47;4417335;32;33605;-79
2022/08/28 10:19:22;;;;;;;7.93;2.03;;;;;;;29.67;39.14;99297.78;4411745;32;33943;-80
2022/08/28 10:21:58;;;;;;;3.92;1.52;;;;;;;29.65;39.31;99304.22;4443268;32;33551;-80
2022/08/28 10:24:40;;;;;;;3.92;2.12;;;;;;;29.85;38.42;99296.94;4470960;32;33033;-79
2022/08/28 10:27:13;;;;;;;3.97;1.50;;;;;;;29.73;39.14;99291.81;4476290;32;33922;-79
2022/08/28 10:29:49;;;;;;;4.60;1.70;;;;;;;29.83;40.31;99286.38;4481374;32;34532;-79
2022/08/28 10:32:33;;;;;;;3.17;1.45;;;;;;;30.38;37.82;99288.00;4480705;32;34236;-79
2022/08/28 10:35:05;;;;;;;2.92;1.55;;;;;;;30.41;37.42;99285.00;4476258;32;33691;-79
2022/08/28 10:37:43;;;;;;;3.72;1.80;;;;;;;30.57;36.31;99292.31;4478128;32;34386;-80
2022/08/28 10:40:15;;;;;;;4.72;2.03;;;;;;;30.26;37.00;99286.59;4476964;32;34364;-80
2022/08/28 10:42:54;;;;;;;4.05;1.83;;;;;;;30.25;37.93;99284.87;4475079;32;33863;-80
2022/08/28 10:45:25;;;;;;;2.87;1.23;;;;;;;29.74;38.77;99287.28;4482794;32;34050;-79
2022/08/28 10:47:54;;;;;;;;;;;;;;;30.32;37.27;99277.91;4477912;32;33389;-78
2022/08/28 10:50:26;;;;;;;4.93;1.70;;;;;;;30.67;38.51;99278.81;4478222;32;34698;-78
2022/08/28 10:52:59;;;;;;;3.62;1.62;;;;;;;30.61;38.01;99280.28;4477524;32;33748;-78
2022/08/28 10:55:33;;;;;;;2.25;1.30;;;;;;;30.65;37.32;99276.28;4482540;32;33406;-81
2022/08/28 10:58:06;;;;;;;3.85;1.73;;;;;;;30.53;36.91;99273.03;4483739;32;33948;-80
2022/08/28 11:00:54;;;;;;;3.72;1.33;;;;;;;30.57;38.52;99278.94;4477311;32;33757;-79
2022/08/28 11:03:24;;;;;;;5.55;2.20;;;;;;;30.83;36.90;99274.41;4472727;32;33565;-81
2022/08/28 11:06:08;;;;;;;3.47;1.92;;;;;;;31.12;36.46;99272.31;4472697;32;33251;-80
2022/08/28 11:08:39;;;;;;;3.85;1.17;;;;;;;30.59;37.31;99275.09;4477853;32;33884;-81
2022/08/28 11:11:13;;;;;;;5.10;1.48;;;;;;;30.81;38.02;99272.88;4477693;32;33992;-79
2022/08/28 11:13:52;;;;;;;4.07;1.80;;;;;;;30.90;36.33;99271.06;4477734;32;33837;-80
2022/08/28 11:16:24;;;;;;;4.47;1.20;;;;;;;30.88;36.65;99276.63;4477626;32;34557;-79
2022/08/28 11:19:20;;;;;;;4.12;1.83;;;;;;;30.71;36.70;99280.16;4471940;32;34446;-81
2022/08/28 11:21:51;;;;;;;5.62;1.30;;;;;;;31.29;36.43;99268.72;4477756;32;33621;-79
2022/08/28 11:24:31;;;;;;;3.17;1.45;;;;;;;31.52;36.69;99270.78;4483189;32;33781;-79
2022/08/28 11:27:07;;;;;;;3.67;2.37;;;;;;;31.79;33.92;99275.84;4482160;32;33377;-79
2022/08/28 11:30:20;;;;;;;2.60;1.33;;;;;;;31.75;34.13;99274.50;4477637;32;34818;-80
2022/08/28 11:33:05;;;;;;;3.03;1.50;;;;;;;31.72;34.11;99274.00;4472904;31;34307;-79
2022/08/28 11:35:49;;;;;;;3.62;1.52;;;;;;;31.55;34.08;99273.97;4472681;32;33591;-80
2022/08/28 11:39:05;;;;;;;1.37;1.02;;;;;;;31.35;36.15;99264.53;4461891;32;34191;-81
2022/08/28 11:41:37;;;;;;;3.10;1.42;;;;;;;31.42;34.96;99268.25;4461768;32;33777;-79
2022/08/28 11:44:38;;;;;;;3.20;1.50;;;;;;;31.65;35.14;99272.00;4461766;32;34423;-81
2022/08/28 11:47:40;;;;;;;2.33;1.10;;;;;;;31.74;33.53;99267.47;4460561;32;33737;-79
2022/08/28 11:50:23;;;;;;;3.75;1.08;;;;;;;31.70;34.02;99270.63;4455155;32;32913;-78
2022/08/28 11:53:27;;;;;;;3.37;1.67;;;;;;;31.99;33.27;99270.16;4467399;32;34540;-80
2022/08/28 11:56:22;;;;;;;2.95;1.23;;;;;;;31.89;33.75;99263.13;4478345;32;33553;-79
2022/08/28 11:59:09;;;;;;;2.42;1.05;;;;;;;32.20;32.73;99259.75;4472153;32;34185;-79
2022/08/28 12:01:39;;;;;;;3.33;1.50;;;;;;;32.27;31.31;99262.59;4477449;32;33151;-80
2022/08/28 12:04:11;;;;;;;1.58;1.00;;;;;;;32.29;31.87;99256.06;4476913;32;34334;-81
2022/08/28 12:07:16;;;;;;;1.33;0.95;;;;;;;32.20;32.43;99261.59;4476359;32;33636;-80
2022/08/28 12:09:46;;;;;;;3.72;1.40;;;;;;;32.38;32.85;99256.03;4468785;32;33729;-79